sensor_id;sensor_type;location;lat;lon;timestamp;P1;durP1;ratioP1;P2;durP2;ratioP2
68583;SDS011;55557;49.220;11.150;2023-07-28T00:02:01;4.27;;;3.23;;
68583;SDS011;55557;49.220;11.150;2023-07-28T00:04:27;4.43;;;3.10;;
68583;SDS011;55557;49.220;11.150;2023-07-28T00:06:52;4.83;;;3.10;;
68583;SDS011;55557;49.220;11.150;2023-07-28T00:09:19;3.50;;;2.80;;
68583;SDS011;55557;49.220;11.150;2023-07-28T00:11:44;5.10;;;3.53;;
68583;SDS011;55557;49.220;11.150;2023-07-28T00:14:10;3.73;;;3.30;;
68583;SDS011;55557;49.220;11.150;2023-07-28T00:16:36;3.53;;;2.80;;
68583;SDS011;55557;49.220;11.150;2023-07-28T00:19:03;5.40;;;3.03;;
68583;SDS011;55557;49.220;11.150;2023-07-28T00:21:29;3.43;;;2.90;;
68583;SDS011;55557;49.220;11.150;2023-07-28T00:23:55;3.10;;;2.70;;
68583;SDS011;55557;49.220;11.150;2023-07-28T00:26:21;3.77;;;3.10;;
68583;SDS011;55557;49.220;11.150;2023-07-28T00:28:47;4.00;;;3.20;;
68583;SDS011;55557;49.220;11.150;2023-07-28T00:31:13;3.47;;;2.97;;
68583;SDS011;55557;49.220;11.150;2023-07-28T00:33:39;7.97;;;3.37;;
68583;SDS011;55557;49.220;11.150;2023-07-28T00:36:05;5.83;;;2.87;;
68583;SDS011;55557;49.220;11.150;2023-07-28T00:38:31;4.87;;;3.43;;
68583;SDS011;55557;49.220;11.150;2023-07-28T00:40:57;4.20;;;2.53;;
68583;SDS011;55557;49.220;11.150;2023-07-28T00:43:23;3.50;;;2.93;;
68583;SDS011;55557;49.220;11.150;2023-07-28T00:45:49;3.80;;;3.17;;
68583;SDS011;55557;49.220;11.150;2023-07-28T00:48:15;5.40;;;3.10;;
68583;SDS011;55557;49.220;11.150;2023-07-28T00:50:46;4.93;;;3.13;;
68583;SDS011;55557;49.220;11.150;2023-07-28T00:53:12;3.70;;;2.80;;
68583;SDS011;55557;49.220;11.150;2023-07-28T00:55:39;5.80;;;3.67;;
68583;SDS011;55557;49.220;11.150;2023-07-28T00:58:05;3.87;;;3.20;;
68583;SDS011;55557;49.220;11.150;2023-07-28T01:00:30;4.17;;;3.23;;
68583;SDS011;55557;49.220;11.150;2023-07-28T01:02:57;3.87;;;3.17;;
68583;SDS011;55557;49.220;11.150;2023-07-28T01:05:27;10.60;;;3.77;;
68583;SDS011;55557;49.220;11.150;2023-07-28T01:07:59;3.73;;;3.13;;
68583;SDS011;55557;49.220;11.150;2023-07-28T01:10:28;4.23;;;3.43;;
68583;SDS011;55557;49.220;11.150;2023-07-28T01:12:56;5.53;;;3.33;;
68583;SDS011;55557;49.220;11.150;2023-07-28T01:15:22;7.93;;;3.23;;
68583;SDS011;55557;49.220;11.150;2023-07-28T01:17:48;6.40;;;3.00;;
68583;SDS011;55557;49.220;11.150;2023-07-28T01:20:14;3.70;;;2.93;;
68583;SDS011;55557;49.220;11.150;2023-07-28T01:22:46;3.53;;;3.03;;
68583;SDS011;55557;49.220;11.150;2023-07-28T01:27:54;5.97;;;3.40;;
68583;SDS011;55557;49.220;11.150;2023-07-28T01:30:21;6.73;;;3.23;;
68583;SDS011;55557;49.220;11.150;2023-07-28T01:32:50;3.90;;;3.33;;
68583;SDS011;55557;49.220;11.150;2023-07-28T01:35:16;8.03;;;3.63;;
68583;SDS011;55557;49.220;11.150;2023-07-28T01:37:42;4.63;;;3.40;;
68583;SDS011;55557;49.220;11.150;2023-07-28T01:40:10;5.00;;;3.80;;
68583;SDS011;55557;49.220;11.150;2023-07-28T01:42:36;7.20;;;4.03;;
68583;SDS011;55557;49.220;11.150;2023-07-28T01:45:02;3.73;;;2.97;;
68583;SDS011;55557;49.220;11.150;2023-07-28T01:47:28;5.77;;;3.60;;
68583;SDS011;55557;49.220;11.150;2023-07-28T01:49:54;5.37;;;3.80;;
68583;SDS011;55557;49.220;11.150;2023-07-28T01:52:20;6.67;;;3.60;;
68583;SDS011;55557;49.220;11.150;2023-07-28T01:54:47;7.97;;;3.30;;
68583;SDS011;55557;49.220;11.150;2023-07-28T01:57:13;7.83;;;3.50;;
68583;SDS011;55557;49.220;11.150;2023-07-28T01:59:39;4.13;;;3.30;;
68583;SDS011;55557;49.220;11.150;2023-07-28T02:02:05;3.50;;;2.83;;
68583;SDS011;55557;49.220;11.150;2023-07-28T02:04:31;9.10;;;3.67;;
68583;SDS011;55557;49.220;11.150;2023-07-28T02:06:57;3.10;;;2.80;;
68583;SDS011;55557;49.220;11.150;2023-07-28T02:09:23;4.53;;;3.47;;
68583;SDS011;55557;49.220;11.150;2023-07-28T02:11:49;4.73;;;3.57;;
68583;SDS011;55557;49.220;11.150;2023-07-28T02:14:15;7.73;;;2.93;;
68583;SDS011;55557;49.220;11.150;2023-07-28T02:16:41;8.17;;;3.33;;
68583;SDS011;55557;49.220;11.150;2023-07-28T02:19:07;5.53;;;3.60;;
68583;SDS011;55557;49.220;11.150;2023-07-28T02:21:33;4.37;;;3.30;;
68583;SDS011;55557;49.220;11.150;2023-07-28T02:23:59;4.80;;;3.57;;
68583;SDS011;55557;49.220;11.150;2023-07-28T02:26:25;4.33;;;3.13;;
68583;SDS011;55557;49.220;11.150;2023-07-28T02:28:51;6.00;;;4.03;;
68583;SDS011;55557;49.220;11.150;2023-07-28T02:31:18;4.73;;;4.03;;
68583;SDS011;55557;49.220;11.150;2023-07-28T02:33:44;4.97;;;3.33;;
68583;SDS011;55557;49.220;11.150;2023-07-28T02:36:10;5.33;;;3.40;;
68583;SDS011;55557;49.220;11.150;2023-07-28T02:38:36;5.80;;;3.83;;
68583;SDS011;55557;49.220;11.150;2023-07-28T02:41:02;4.63;;;3.57;;
68583;SDS011;55557;49.220;11.150;2023-07-28T02:43:29;5.20;;;3.97;;
68583;SDS011;55557;49.220;11.150;2023-07-28T02:45:55;5.33;;;3.87;;
68583;SDS011;55557;49.220;11.150;2023-07-28T02:48:21;6.63;;;3.57;;
68583;SDS011;55557;49.220;11.150;2023-07-28T02:50:48;5.00;;;3.47;;
68583;SDS011;55557;49.220;11.150;2023-07-28T02:53:15;4.67;;;3.80;;
68583;SDS011;55557;49.220;11.150;2023-07-28T02:55:44;6.33;;;3.63;;
68583;SDS011;55557;49.220;11.150;2023-07-28T02:58:13;5.43;;;3.60;;
68583;SDS011;55557;49.220;11.150;2023-07-28T03:00:43;4.80;;;3.50;;
68583;SDS011;55557;49.220;11.150;2023-07-28T03:03:11;5.77;;;3.70;;
68583;SDS011;55557;49.220;11.150;2023-07-28T03:05:38;4.60;;;3.40;;
68583;SDS011;55557;49.220;11.150;2023-07-28T03:08:04;5.53;;;3.73;;
68583;SDS011;55557;49.220;11.150;2023-07-28T03:10:31;4.30;;;3.60;;
68583;SDS011;55557;49.220;11.150;2023-07-28T03:12:57;4.60;;;3.47;;
68583;SDS011;55557;49.220;11.150;2023-07-28T03:15:23;3.87;;;3.43;;
68583;SDS011;55557;49.220;11.150;2023-07-28T03:17:49;5.93;;;3.77;;
68583;SDS011;55557;49.220;11.150;2023-07-28T03:20:16;4.57;;;3.70;;
68583;SDS011;55557;49.220;11.150;2023-07-28T03:22:42;4.53;;;3.53;;
68583;SDS011;55557;49.220;11.150;2023-07-28T03:25:08;4.17;;;3.77;;
68583;SDS011;55557;49.220;11.150;2023-07-28T03:27:34;5.60;;;3.50;;
68583;SDS011;55557;49.220;11.150;2023-07-28T03:30:01;4.30;;;3.50;;
68583;SDS011;55557;49.220;11.150;2023-07-28T03:32:27;4.50;;;3.97;;
68583;SDS011;55557;49.220;11.150;2023-07-28T03:34:53;7.77;;;4.37;;
68583;SDS011;55557;49.220;11.150;2023-07-28T03:37:19;5.63;;;4.20;;
68583;SDS011;55557;49.220;11.150;2023-07-28T03:39:45;4.57;;;4.00;;
68583;SDS011;55557;49.220;11.150;2023-07-28T03:42:11;5.97;;;4.40;;
68583;SDS011;55557;49.220;11.150;2023-07-28T03:44:37;11.97;;;3.80;;
68583;SDS011;55557;49.220;11.150;2023-07-28T03:47:04;9.40;;;4.23;;
68583;SDS011;55557;49.220;11.150;2023-07-28T03:49:30;4.43;;;3.70;;
68583;SDS011;55557;49.220;11.150;2023-07-28T03:51:57;4.80;;;3.97;;
68583;SDS011;55557;49.220;11.150;2023-07-28T03:54:23;4.67;;;3.87;;
68583;SDS011;55557;49.220;11.150;2023-07-28T03:56:49;4.70;;;4.07;;
68583;SDS011;55557;49.220;11.150;2023-07-28T03:59:15;5.43;;;4.20;;
68583;SDS011;55557;49.220;11.150;2023-07-28T04:01:41;5.97;;;4.20;;
68583;SDS011;55557;49.220;11.150;2023-07-28T04:04:07;7.67;;;4.83;;
68583;SDS011;55557;49.220;11.150;2023-07-28T04:06:41;5.20;;;4.13;;
68583;SDS011;55557;49.220;11.150;2023-07-28T04:09:07;9.13;;;4.63;;
68583;SDS011;55557;49.220;11.150;2023-07-28T04:11:33;4.57;;;4.03;;
68583;SDS011;55557;49.220;11.150;2023-07-28T04:13:59;6.37;;;4.20;;
68583;SDS011;55557;49.220;11.150;2023-07-28T04:16:25;4.97;;;4.47;;
68583;SDS011;55557;49.220;11.150;2023-07-28T04:18:51;4.20;;;3.80;;
68583;SDS011;55557;49.220;11.150;2023-07-28T04:21:17;6.77;;;4.17;;
68583;SDS011;55557;49.220;11.150;2023-07-28T04:23:44;7.00;;;4.53;;
68583;SDS011;55557;49.220;11.150;2023-07-28T04:26:12;7.47;;;4.00;;
68583;SDS011;55557;49.220;11.150;2023-07-28T04:28:38;4.87;;;4.03;;
68583;SDS011;55557;49.220;11.150;2023-07-28T04:31:04;5.73;;;3.87;;
68583;SDS011;55557;49.220;11.150;2023-07-28T04:33:30;4.80;;;4.00;;
68583;SDS011;55557;49.220;11.150;2023-07-28T04:35:56;6.20;;;4.13;;
68583;SDS011;55557;49.220;11.150;2023-07-28T04:38:22;6.33;;;4.67;;
68583;SDS011;55557;49.220;11.150;2023-07-28T04:40:48;5.30;;;3.97;;
68583;SDS011;55557;49.220;11.150;2023-07-28T04:43:14;4.83;;;4.13;;
68583;SDS011;55557;49.220;11.150;2023-07-28T04:45:40;6.73;;;4.47;;
68583;SDS011;55557;49.220;11.150;2023-07-28T04:48:06;7.40;;;4.97;;
68583;SDS011;55557;49.220;11.150;2023-07-28T04:50:32;6.93;;;4.03;;
68583;SDS011;55557;49.220;11.150;2023-07-28T04:52:58;8.77;;;4.83;;
68583;SDS011;55557;49.220;11.150;2023-07-28T04:55:24;6.73;;;5.00;;
68583;SDS011;55557;49.220;11.150;2023-07-28T04:57:52;6.30;;;5.13;;
68583;SDS011;55557;49.220;11.150;2023-07-28T05:00:18;8.57;;;4.30;;
68583;SDS011;55557;49.220;11.150;2023-07-28T05:02:44;4.97;;;4.43;;
68583;SDS011;55557;49.220;11.150;2023-07-28T05:05:10;5.10;;;4.23;;
68583;SDS011;55557;49.220;11.150;2023-07-28T05:07:36;5.63;;;4.67;;
68583;SDS011;55557;49.220;11.150;2023-07-28T05:10:02;6.07;;;4.37;;
68583;SDS011;55557;49.220;11.150;2023-07-28T05:12:28;9.03;;;4.27;;
68583;SDS011;55557;49.220;11.150;2023-07-28T05:14:54;5.50;;;4.00;;
68583;SDS011;55557;49.220;11.150;2023-07-28T05:17:20;7.20;;;4.67;;
68583;SDS011;55557;49.220;11.150;2023-07-28T05:19:46;4.83;;;4.20;;
68583;SDS011;55557;49.220;11.150;2023-07-28T05:22:12;4.77;;;4.23;;
68583;SDS011;55557;49.220;11.150;2023-07-28T05:24:38;5.43;;;4.67;;
68583;SDS011;55557;49.220;11.150;2023-07-28T05:27:04;7.77;;;4.70;;
68583;SDS011;55557;49.220;11.150;2023-07-28T05:29:30;6.40;;;4.63;;
68583;SDS011;55557;49.220;11.150;2023-07-28T05:31:58;7.97;;;4.87;;
68583;SDS011;55557;49.220;11.150;2023-07-28T05:34:25;9.93;;;4.47;;
68583;SDS011;55557;49.220;11.150;2023-07-28T05:36:51;9.20;;;4.50;;
68583;SDS011;55557;49.220;11.150;2023-07-28T05:39:17;8.97;;;4.10;;
68583;SDS011;55557;49.220;11.150;2023-07-28T05:41:43;6.73;;;5.33;;
68583;SDS011;55557;49.220;11.150;2023-07-28T05:44:09;6.63;;;3.93;;
68583;SDS011;55557;49.220;11.150;2023-07-28T05:46:35;6.07;;;4.00;;
68583;SDS011;55557;49.220;11.150;2023-07-28T05:49:01;5.20;;;4.67;;
68583;SDS011;55557;49.220;11.150;2023-07-28T05:51:27;7.20;;;4.57;;
68583;SDS011;55557;49.220;11.150;2023-07-28T05:53:53;6.87;;;4.33;;
68583;SDS011;55557;49.220;11.150;2023-07-28T05:56:19;7.33;;;4.40;;
68583;SDS011;55557;49.220;11.150;2023-07-28T05:58:46;9.83;;;4.60;;
68583;SDS011;55557;49.220;11.150;2023-07-28T06:01:12;4.90;;;3.90;;
68583;SDS011;55557;49.220;11.150;2023-07-28T06:03:38;5.07;;;4.07;;
68583;SDS011;55557;49.220;11.150;2023-07-28T06:06:04;7.43;;;5.13;;
68583;SDS011;55557;49.220;11.150;2023-07-28T06:08:30;8.50;;;4.87;;
68583;SDS011;55557;49.220;11.150;2023-07-28T06:10:56;11.57;;;4.43;;
68583;SDS011;55557;49.220;11.150;2023-07-28T06:13:22;6.27;;;4.47;;
68583;SDS011;55557;49.220;11.150;2023-07-28T06:15:49;7.03;;;4.80;;
68583;SDS011;55557;49.220;11.150;2023-07-28T06:18:17;6.90;;;4.73;;
68583;SDS011;55557;49.220;11.150;2023-07-28T06:20:45;11.83;;;4.30;;
68583;SDS011;55557;49.220;11.150;2023-07-28T06:23:11;8.43;;;5.13;;
68583;SDS011;55557;49.220;11.150;2023-07-28T06:25:37;4.77;;;4.27;;
68583;SDS011;55557;49.220;11.150;2023-07-28T06:28:08;5.87;;;4.47;;
68583;SDS011;55557;49.220;11.150;2023-07-28T06:30:34;6.00;;;4.50;;
68583;SDS011;55557;49.220;11.150;2023-07-28T06:33:00;7.27;;;4.03;;
68583;SDS011;55557;49.220;11.150;2023-07-28T06:35:28;5.73;;;4.43;;
68583;SDS011;55557;49.220;11.150;2023-07-28T06:37:54;6.43;;;4.83;;
68583;SDS011;55557;49.220;11.150;2023-07-28T06:40:20;6.63;;;5.00;;
68583;SDS011;55557;49.220;11.150;2023-07-28T06:42:46;5.70;;;5.00;;
68583;SDS011;55557;49.220;11.150;2023-07-28T06:45:12;6.73;;;5.57;;
68583;SDS011;55557;49.220;11.150;2023-07-28T06:47:39;5.97;;;4.87;;
68583;SDS011;55557;49.220;11.150;2023-07-28T06:50:05;5.97;;;4.60;;
68583;SDS011;55557;49.220;11.150;2023-07-28T06:52:31;5.90;;;4.53;;
68583;SDS011;55557;49.220;11.150;2023-07-28T06:54:57;8.47;;;4.90;;
68583;SDS011;55557;49.220;11.150;2023-07-28T06:57:23;9.07;;;4.27;;
68583;SDS011;55557;49.220;11.150;2023-07-28T06:59:49;8.17;;;4.57;;
68583;SDS011;55557;49.220;11.150;2023-07-28T07:02:16;12.30;;;4.50;;
68583;SDS011;55557;49.220;11.150;2023-07-28T07:04:42;6.93;;;4.93;;
68583;SDS011;55557;49.220;11.150;2023-07-28T07:07:08;6.47;;;4.57;;
68583;SDS011;55557;49.220;11.150;2023-07-28T07:09:34;6.37;;;4.10;;
68583;SDS011;55557;49.220;11.150;2023-07-28T07:12:00;8.23;;;4.50;;
68583;SDS011;55557;49.220;11.150;2023-07-28T07:14:26;5.37;;;3.97;;
68583;SDS011;55557;49.220;11.150;2023-07-28T07:16:52;5.27;;;3.83;;
68583;SDS011;55557;49.220;11.150;2023-07-28T07:19:18;5.60;;;4.17;;
68583;SDS011;55557;49.220;11.150;2023-07-28T07:21:44;6.43;;;3.80;;
68583;SDS011;55557;49.220;11.150;2023-07-28T07:24:12;7.37;;;4.60;;
68583;SDS011;55557;49.220;11.150;2023-07-28T07:26:41;6.63;;;3.97;;
68583;SDS011;55557;49.220;11.150;2023-07-28T07:32:10;5.63;;;3.77;;
68583;SDS011;55557;49.220;11.150;2023-07-28T07:34:38;6.60;;;4.10;;
68583;SDS011;55557;49.220;11.150;2023-07-28T07:37:04;5.43;;;4.00;;
68583;SDS011;55557;49.220;11.150;2023-07-28T07:39:30;6.00;;;4.20;;
68583;SDS011;55557;49.220;11.150;2023-07-28T07:41:57;5.07;;;4.20;;
68583;SDS011;55557;49.220;11.150;2023-07-28T07:44:24;5.50;;;4.50;;
68583;SDS011;55557;49.220;11.150;2023-07-28T07:46:55;4.73;;;4.10;;
68583;SDS011;55557;49.220;11.150;2023-07-28T07:49:21;5.50;;;3.90;;
68583;SDS011;55557;49.220;11.150;2023-07-28T07:51:48;6.53;;;3.97;;
68583;SDS011;55557;49.220;11.150;2023-07-28T07:54:14;4.63;;;4.13;;
68583;SDS011;55557;49.220;11.150;2023-07-28T07:56:43;6.23;;;3.73;;
68583;SDS011;55557;49.220;11.150;2023-07-28T07:59:09;5.80;;;4.00;;
68583;SDS011;55557;49.220;11.150;2023-07-28T08:01:35;5.80;;;3.93;;
68583;SDS011;55557;49.220;11.150;2023-07-28T08:04:01;4.83;;;3.53;;
68583;SDS011;55557;49.220;11.150;2023-07-28T08:06:27;5.70;;;4.47;;
68583;SDS011;55557;49.220;11.150;2023-07-28T08:08:54;5.33;;;4.10;;
68583;SDS011;55557;49.220;11.150;2023-07-28T08:11:21;5.40;;;4.30;;
68583;SDS011;55557;49.220;11.150;2023-07-28T08:13:47;8.67;;;4.20;;
68583;SDS011;55557;49.220;11.150;2023-07-28T08:16:13;6.60;;;4.43;;
68583;SDS011;55557;49.220;11.150;2023-07-28T08:18:39;5.10;;;4.10;;
68583;SDS011;55557;49.220;11.150;2023-07-28T08:21:06;5.30;;;4.17;;
68583;SDS011;55557;49.220;11.150;2023-07-28T08:23:32;5.50;;;4.50;;
68583;SDS011;55557;49.220;11.150;2023-07-28T08:25:58;6.30;;;4.30;;
68583;SDS011;55557;49.220;11.150;2023-07-28T08:28:24;4.40;;;4.00;;
68583;SDS011;55557;49.220;11.150;2023-07-28T08:30:54;6.40;;;4.37;;
68583;SDS011;55557;49.220;11.150;2023-07-28T08:33:21;6.67;;;4.30;;
68583;SDS011;55557;49.220;11.150;2023-07-28T08:35:47;6.73;;;4.53;;
68583;SDS011;55557;49.220;11.150;2023-07-28T08:38:13;7.43;;;5.07;;
68583;SDS011;55557;49.220;11.150;2023-07-28T08:40:39;7.67;;;4.90;;
68583;SDS011;55557;49.220;11.150;2023-07-28T08:43:05;8.33;;;4.27;;
68583;SDS011;55557;49.220;11.150;2023-07-28T08:45:31;7.50;;;4.87;;
68583;SDS011;55557;49.220;11.150;2023-07-28T08:47:57;7.43;;;4.67;;
68583;SDS011;55557;49.220;11.150;2023-07-28T08:50:24;5.97;;;4.60;;
68583;SDS011;55557;49.220;11.150;2023-07-28T08:52:51;7.10;;;5.13;;
68583;SDS011;55557;49.220;11.150;2023-07-28T08:55:17;7.87;;;4.90;;
68583;SDS011;55557;49.220;11.150;2023-07-28T08:57:43;6.63;;;5.23;;
68583;SDS011;55557;49.220;11.150;2023-07-28T09:00:09;5.70;;;5.20;;
68583;SDS011;55557;49.220;11.150;2023-07-28T09:02:38;5.77;;;4.90;;
68583;SDS011;55557;49.220;11.150;2023-07-28T09:05:05;7.47;;;5.83;;
68583;SDS011;55557;49.220;11.150;2023-07-28T09:07:34;6.57;;;5.47;;
68583;SDS011;55557;49.220;11.150;2023-07-28T09:10:01;6.67;;;5.53;;
68583;SDS011;55557;49.220;11.150;2023-07-28T09:12:27;5.70;;;4.80;;
68583;SDS011;55557;49.220;11.150;2023-07-28T09:14:56;7.40;;;5.17;;
68583;SDS011;55557;49.220;11.150;2023-07-28T09:17:22;6.10;;;5.03;;
68583;SDS011;55557;49.220;11.150;2023-07-28T09:19:49;5.43;;;4.53;;
68583;SDS011;55557;49.220;11.150;2023-07-28T09:22:15;7.40;;;4.80;;
68583;SDS011;55557;49.220;11.150;2023-07-28T09:24:41;5.60;;;4.83;;
68583;SDS011;55557;49.220;11.150;2023-07-28T09:27:08;5.57;;;4.30;;
68583;SDS011;55557;49.220;11.150;2023-07-28T09:29:51;6.50;;;4.57;;
68583;SDS011;55557;49.220;11.150;2023-07-28T09:32:28;6.13;;;4.50;;
68583;SDS011;55557;49.220;11.150;2023-07-28T09:35:05;6.07;;;4.43;;
68583;SDS011;55557;49.220;11.150;2023-07-28T09:37:32;8.83;;;4.67;;
68583;SDS011;55557;49.220;11.150;2023-07-28T09:39:59;5.37;;;4.40;;
68583;SDS011;55557;49.220;11.150;2023-07-28T09:42:26;5.67;;;3.90;;
68583;SDS011;55557;49.220;11.150;2023-07-28T09:44:52;4.20;;;3.77;;
68583;SDS011;55557;49.220;11.150;2023-07-28T09:47:18;4.07;;;3.20;;
68583;SDS011;55557;49.220;11.150;2023-07-28T09:49:46;3.03;;;2.73;;
68583;SDS011;55557;49.220;11.150;2023-07-28T09:52:13;5.10;;;3.53;;
68583;SDS011;55557;49.220;11.150;2023-07-28T09:54:40;5.10;;;3.23;;
68583;SDS011;55557;49.220;11.150;2023-07-28T09:57:08;3.50;;;3.10;;
68583;SDS011;55557;49.220;11.150;2023-07-28T09:59:40;5.37;;;3.33;;
68583;SDS011;55557;49.220;11.150;2023-07-28T10:02:07;4.17;;;3.03;;
68583;SDS011;55557;49.220;11.150;2023-07-28T10:04:33;4.90;;;2.97;;
68583;SDS011;55557;49.220;11.150;2023-07-28T10:06:59;5.67;;;3.03;;
68583;SDS011;55557;49.220;11.150;2023-07-28T10:09:26;4.90;;;2.90;;
68583;SDS011;55557;49.220;11.150;2023-07-28T10:11:53;3.90;;;2.87;;
68583;SDS011;55557;49.220;11.150;2023-07-28T10:14:28;3.53;;;2.97;;
68583;SDS011;55557;49.220;11.150;2023-07-28T10:16:56;3.20;;;2.90;;
68583;SDS011;55557;49.220;11.150;2023-07-28T10:19:24;4.13;;;3.37;;
68583;SDS011;55557;49.220;11.150;2023-07-28T10:21:54;3.77;;;3.07;;
68583;SDS011;55557;49.220;11.150;2023-07-28T10:27:11;2.70;;;2.40;;
68583;SDS011;55557;49.220;11.150;2023-07-28T10:29:37;5.30;;;2.30;;
68583;SDS011;55557;49.220;11.150;2023-07-28T10:32:03;2.50;;;2.23;;
68583;SDS011;55557;49.220;11.150;2023-07-28T10:34:29;3.73;;;2.07;;
68583;SDS011;55557;49.220;11.150;2023-07-28T10:36:56;4.77;;;1.70;;
68583;SDS011;55557;49.220;11.150;2023-07-28T10:39:23;1.77;;;1.67;;
68583;SDS011;55557;49.220;11.150;2023-07-28T10:44:22;1.67;;;1.20;;
68583;SDS011;55557;49.220;11.150;2023-07-28T10:46:48;2.27;;;1.33;;
68583;SDS011;55557;49.220;11.150;2023-07-28T10:49:15;1.27;;;1.17;;
68583;SDS011;55557;49.220;11.150;2023-07-28T10:51:42;1.20;;;1.03;;
68583;SDS011;55557;49.220;11.150;2023-07-28T10:54:08;1.20;;;1.10;;
68583;SDS011;55557;49.220;11.150;2023-07-28T10:56:34;1.50;;;0.93;;
68583;SDS011;55557;49.220;11.150;2023-07-28T10:59:01;1.07;;;0.97;;
68583;SDS011;55557;49.220;11.150;2023-07-28T11:01:39;0.97;;;0.93;;
68583;SDS011;55557;49.220;11.150;2023-07-28T11:04:13;2.13;;;1.00;;
68583;SDS011;55557;49.220;11.150;2023-07-28T11:06:40;0.60;;;0.60;;
68583;SDS011;55557;49.220;11.150;2023-07-28T11:09:07;1.63;;;0.90;;
68583;SDS011;55557;49.220;11.150;2023-07-28T11:11:35;1.50;;;1.00;;
68583;SDS011;55557;49.220;11.150;2023-07-28T11:14:01;3.90;;;1.10;;
68583;SDS011;55557;49.220;11.150;2023-07-28T11:16:28;1.23;;;0.93;;
68583;SDS011;55557;49.220;11.150;2023-07-28T11:19:01;1.17;;;0.87;;
68583;SDS011;55557;49.220;11.150;2023-07-28T11:21:27;3.60;;;0.87;;
68583;SDS011;55557;49.220;11.150;2023-07-28T11:23:53;2.43;;;1.30;;
68583;SDS011;55557;49.220;11.150;2023-07-28T11:26:22;1.27;;;0.93;;
68583;SDS011;55557;49.220;11.150;2023-07-28T11:28:52;0.83;;;0.73;;
68583;SDS011;55557;49.220;11.150;2023-07-28T11:31:22;0.90;;;0.77;;
68583;SDS011;55557;49.220;11.150;2023-07-28T11:33:50;0.80;;;0.80;;
68583;SDS011;55557;49.220;11.150;2023-07-28T11:36:22;1.20;;;0.90;;
68583;SDS011;55557;49.220;11.150;2023-07-28T11:38:49;0.90;;;0.83;;
68583;SDS011;55557;49.220;11.150;2023-07-28T11:41:16;1.13;;;0.90;;
68583;SDS011;55557;49.220;11.150;2023-07-28T11:43:42;0.83;;;0.80;;
68583;SDS011;55557;49.220;11.150;2023-07-28T11:49:13;1.13;;;0.90;;
68583;SDS011;55557;49.220;11.150;2023-07-28T11:51:41;1.03;;;0.97;;
68583;SDS011;55557;49.220;11.150;2023-07-28T11:54:11;0.67;;;0.60;;
68583;SDS011;55557;49.220;11.150;2023-07-28T11:56:44;2.73;;;0.90;;
68583;SDS011;55557;49.220;11.150;2023-07-28T11:59:11;2.57;;;1.00;;
68583;SDS011;55557;49.220;11.150;2023-07-28T12:04:28;0.50;;;0.50;;
68583;SDS011;55557;49.220;11.150;2023-07-28T12:07:14;1.63;;;0.63;;
68583;SDS011;55557;49.220;11.150;2023-07-28T12:12:28;0.83;;;0.60;;
68583;SDS011;55557;49.220;11.150;2023-07-28T12:14:55;0.53;;;0.53;;
68583;SDS011;55557;49.220;11.150;2023-07-28T12:17:23;1.43;;;0.80;;
68583;SDS011;55557;49.220;11.150;2023-07-28T12:20:06;1.00;;;0.80;;
68583;SDS011;55557;49.220;11.150;2023-07-28T12:22:38;1.30;;;1.00;;
68583;SDS011;55557;49.220;11.150;2023-07-28T12:25:04;1.10;;;1.00;;
68583;SDS011;55557;49.220;11.150;2023-07-28T12:27:30;1.33;;;0.80;;
68583;SDS011;55557;49.220;11.150;2023-07-28T12:29:57;1.37;;;0.87;;
68583;SDS011;55557;49.220;11.150;2023-07-28T12:32:23;3.37;;;1.10;;
68583;SDS011;55557;49.220;11.150;2023-07-28T12:34:49;1.13;;;0.90;;
68583;SDS011;55557;49.220;11.150;2023-07-28T12:37:16;1.20;;;1.00;;
68583;SDS011;55557;49.220;11.150;2023-07-28T12:39:42;1.07;;;0.90;;
68583;SDS011;55557;49.220;11.150;2023-07-28T12:42:09;1.40;;;0.80;;
68583;SDS011;55557;49.220;11.150;2023-07-28T12:44:35;2.17;;;0.80;;
68583;SDS011;55557;49.220;11.150;2023-07-28T12:47:01;1.10;;;0.80;;
68583;SDS011;55557;49.220;11.150;2023-07-28T12:49:28;1.67;;;0.90;;
68583;SDS011;55557;49.220;11.150;2023-07-28T12:51:55;1.80;;;0.97;;
68583;SDS011;55557;49.220;11.150;2023-07-28T12:54:21;1.73;;;1.00;;
68583;SDS011;55557;49.220;11.150;2023-07-28T12:56:48;1.57;;;0.90;;
68583;SDS011;55557;49.220;11.150;2023-07-28T12:59:14;0.60;;;0.60;;
68583;SDS011;55557;49.220;11.150;2023-07-28T13:01:40;1.07;;;0.90;;
68583;SDS011;55557;49.220;11.150;2023-07-28T13:04:06;1.43;;;0.80;;
68583;SDS011;55557;49.220;11.150;2023-07-28T13:06:32;2.63;;;0.97;;
68583;SDS011;55557;49.220;11.150;2023-07-28T13:09:01;0.90;;;0.90;;
68583;SDS011;55557;49.220;11.150;2023-07-28T13:11:27;1.23;;;1.00;;
68583;SDS011;55557;49.220;11.150;2023-07-28T13:13:53;0.97;;;0.87;;
68583;SDS011;55557;49.220;11.150;2023-07-28T13:16:21;1.47;;;1.27;;
68583;SDS011;55557;49.220;11.150;2023-07-28T13:18:48;0.83;;;0.83;;
68583;SDS011;55557;49.220;11.150;2023-07-28T13:21:14;1.47;;;0.70;;
68583;SDS011;55557;49.220;11.150;2023-07-28T13:23:40;6.33;;;1.10;;
68583;SDS011;55557;49.220;11.150;2023-07-28T13:26:06;0.77;;;0.67;;
68583;SDS011;55557;49.220;11.150;2023-07-28T13:28:32;2.70;;;0.90;;
68583;SDS011;55557;49.220;11.150;2023-07-28T13:31:00;1.20;;;0.93;;
68583;SDS011;55557;49.220;11.150;2023-07-28T13:33:26;0.87;;;0.87;;
68583;SDS011;55557;49.220;11.150;2023-07-28T13:35:52;1.40;;;0.80;;
68583;SDS011;55557;49.220;11.150;2023-07-28T13:38:18;0.70;;;0.70;;
68583;SDS011;55557;49.220;11.150;2023-07-28T13:40:44;1.10;;;0.80;;
68583;SDS011;55557;49.220;11.150;2023-07-28T13:43:10;0.60;;;0.50;;
68583;SDS011;55557;49.220;11.150;2023-07-28T13:45:36;3.07;;;0.60;;
68583;SDS011;55557;49.220;11.150;2023-07-28T13:48:03;1.13;;;1.00;;
68583;SDS011;55557;49.220;11.150;2023-07-28T13:50:29;1.47;;;0.97;;
68583;SDS011;55557;49.220;11.150;2023-07-28T13:52:55;1.20;;;0.80;;
68583;SDS011;55557;49.220;11.150;2023-07-28T13:55:21;1.80;;;1.13;;
68583;SDS011;55557;49.220;11.150;2023-07-28T13:57:47;0.97;;;0.87;;
68583;SDS011;55557;49.220;11.150;2023-07-28T14:00:13;0.90;;;0.70;;
68583;SDS011;55557;49.220;11.150;2023-07-28T14:02:40;0.67;;;0.67;;
68583;SDS011;55557;49.220;11.150;2023-07-28T14:05:06;1.43;;;0.80;;
68583;SDS011;55557;49.220;11.150;2023-07-28T14:07:32;1.33;;;0.87;;
68583;SDS011;55557;49.220;11.150;2023-07-28T14:09:59;1.73;;;0.60;;
68583;SDS011;55557;49.220;11.150;2023-07-28T14:12:26;1.20;;;0.80;;
68583;SDS011;55557;49.220;11.150;2023-07-28T14:14:52;1.27;;;0.90;;
68583;SDS011;55557;49.220;11.150;2023-07-28T14:17:18;1.33;;;0.73;;
68583;SDS011;55557;49.220;11.150;2023-07-28T14:19:44;0.80;;;0.80;;
68583;SDS011;55557;49.220;11.150;2023-07-28T14:22:10;1.20;;;1.10;;
68583;SDS011;55557;49.220;11.150;2023-07-28T14:24:36;0.87;;;0.80;;
68583;SDS011;55557;49.220;11.150;2023-07-28T14:27:02;1.10;;;1.00;;
68583;SDS011;55557;49.220;11.150;2023-07-28T14:29:28;0.90;;;0.80;;
68583;SDS011;55557;49.220;11.150;2023-07-28T14:31:54;0.90;;;0.70;;
68583;SDS011;55557;49.220;11.150;2023-07-28T14:34:20;0.80;;;0.70;;
68583;SDS011;55557;49.220;11.150;2023-07-28T14:36:46;1.20;;;0.80;;
68583;SDS011;55557;49.220;11.150;2023-07-28T14:39:12;0.93;;;0.80;;
68583;SDS011;55557;49.220;11.150;2023-07-28T14:41:38;0.70;;;0.70;;
68583;SDS011;55557;49.220;11.150;2023-07-28T14:44:07;1.07;;;0.80;;
68583;SDS011;55557;49.220;11.150;2023-07-28T14:46:36;1.87;;;0.97;;
68583;SDS011;55557;49.220;11.150;2023-07-28T14:49:02;0.90;;;0.90;;
68583;SDS011;55557;49.220;11.150;2023-07-28T14:51:28;2.20;;;0.70;;